PWSweather.com
Personal Weather Stations
Station Observations
SPARKSRC
St. Petersburg, FL 33716

St. Petersburg, FL 33716

Lat: 27.876101, Lon: -82.657194

Elevation: 13

Station Type: Zephyr PWS-1000TD

Latest ConditionsUpdated 5:25:01 PM EST Wednesday, Dec 12, 2018
Currently Today's Max Today's Min Today's Average
Temperature 62.4°F16.9°C 72.9°F22.7°C 44.1°F6.7°C 56.0°F13.3°C
Dew Point 50.9°F10.5°C 55.5°F13.1°C 38.9°F3.8°C 46.6°F8.1°C
Winds 2.2 mph NW3.5 kmh NW 9.8 mph -15.8 kmh - - 4.8 mph 7.7 kmh
Wind Gusts 6.9 mph11.1 kmh 13.6 mph21.9 kmh - -
Humidity 66% 87% 53% 72%
Pressure 30.11 in1019.6 mb 30.25 in1024.4 mb 30.10 in1019.3 mb -
Hour Temp Dew Point Humidity Winds Wind Gusts Pressure Precip Precip Rate Daily Precip Total
05:25 PM 62.4°F16.9°C 50.9°F10.5°C 66% 2.2 mph NW3.5 kmh NW 6.9 mph11.1 kmh 30.11 in1019.6 mb 0.00 in0.0 mm 0.00 in0.0 mm 0.00 in0.0 mm
05:20 PM 63.1°F17.3°C 51.2°F10.7°C 65% 3.8 mph NW6.1 kmh NW 6.9 mph11.1 kmh 30.12 in1020.0 mb 0.00 in0.0 mm 0.00 in0.0 mm 0.00 in0.0 mm
05:15 PM 63.7°F17.6°C 51.7°F10.9°C 65% 4.5 mph NW7.2 kmh NW 6.9 mph11.1 kmh 30.12 in1020.0 mb 0.00 in0.0 mm 0.00 in0.0 mm 0.00 in0.0 mm
05:10 PM 64.2°F17.9°C 51.8°F11.0°C 64% 3.1 mph NNW5.0 kmh NNW 6.9 mph11.1 kmh 30.11 in1019.6 mb 0.00 in0.0 mm 0.00 in0.0 mm 0.00 in0.0 mm
05:05 PM 64.2°F17.9°C 51.8°F11.0°C 64% 4.5 mph N7.2 kmh N 6.9 mph11.1 kmh 30.10 in1019.3 mb 0.00 in0.0 mm 0.00 in0.0 mm 0.00 in0.0 mm
05:00 PM 64.4°F18.0°C 52.0°F11.1°C 64% 4.5 mph NNW7.2 kmh NNW 6.9 mph11.1 kmh 30.10 in1019.3 mb 0.00 in0.0 mm 0.00 in0.0 mm 0.00 in0.0 mm
04:55 PM 64.9°F18.3°C 52.1°F11.2°C 63% 4.5 mph NNW7.2 kmh NNW 6.9 mph11.1 kmh 30.11 in1019.6 mb 0.00 in0.0 mm 0.00 in0.0 mm 0.00 in0.0 mm
04:50 PM 64.9°F18.3°C 52.5°F11.4°C 64% 3.1 mph NW5.0 kmh NW 6.9 mph11.1 kmh 30.11 in1019.6 mb 0.00 in0.0 mm 0.00 in0.0 mm 0.00 in0.0 mm
04:45 PM 64.8°F18.2°C 51.9°F11.1°C 63% 4.5 mph NNW7.2 kmh NNW 6.0 mph9.7 kmh 30.10 in1019.3 mb 0.00 in0.0 mm 0.00 in0.0 mm 0.00 in0.0 mm
04:40 PM 65.3°F18.5°C 52.4°F11.3°C 63% 3.8 mph N6.1 kmh N 6.0 mph9.7 kmh 30.10 in1019.3 mb 0.00 in0.0 mm 0.00 in0.0 mm 0.00 in0.0 mm
04:35 PM 65.7°F18.7°C 52.3°F11.3°C 62% 4.5 mph N7.2 kmh N 6.9 mph11.1 kmh 30.10 in1019.3 mb 0.00 in0.0 mm 0.00 in0.0 mm 0.00 in0.0 mm
04:30 PM 66.2°F19.0°C 52.8°F11.6°C 62% 3.1 mph NNW5.0 kmh NNW 6.9 mph11.1 kmh 30.10 in1019.3 mb 0.00 in0.0 mm 0.00 in0.0 mm 0.00 in0.0 mm
04:25 PM 66.6°F19.2°C 52.7°F11.5°C 61% 4.5 mph NW7.2 kmh NW 8.3 mph13.4 kmh 30.10 in1019.3 mb 0.00 in0.0 mm 0.00 in0.0 mm 0.00 in0.0 mm
04:20 PM 66.9°F19.4°C 53.1°F11.7°C 61% 6.0 mph NNW9.7 kmh NNW 8.3 mph13.4 kmh 30.11 in1019.6 mb 0.00 in0.0 mm 0.00 in0.0 mm 0.00 in0.0 mm
04:15 PM 67.3°F19.6°C 52.9°F11.6°C 60% 6.0 mph NNW9.7 kmh NNW 8.3 mph13.4 kmh 30.11 in1019.6 mb 0.00 in0.0 mm 0.00 in0.0 mm 0.00 in0.0 mm
04:10 PM 67.6°F19.8°C 53.3°F11.8°C 60% 2.2 mph N3.5 kmh N 4.5 mph7.2 kmh 30.11 in1019.6 mb 0.00 in0.0 mm 0.00 in0.0 mm 0.00 in0.0 mm
04:05 PM 68.0°F20.0°C 53.6°F12.0°C 60% 2.2 mph N3.5 kmh N 3.8 mph6.1 kmh 30.11 in1019.6 mb 0.00 in0.0 mm 0.00 in0.0 mm 0.00 in0.0 mm
04:00 PM 68.5°F20.3°C 53.7°F12.1°C 59% 2.2 mph NNE3.5 kmh NNE 3.8 mph6.1 kmh 30.11 in1019.6 mb 0.00 in0.0 mm 0.00 in0.0 mm 0.00 in0.0 mm
03:55 PM 68.7°F20.4°C 53.8°F12.1°C 59% Calm Calm 3.8 mph6.1 kmh 30.12 in1020.0 mb 0.00 in0.0 mm 0.00 in0.0 mm 0.00 in0.0 mm
03:50 PM 70.5°F21.4°C 55.5°F13.1°C 59% Calm Calm 5.4 mph8.7 kmh 30.12 in1020.0 mb 0.00 in0.0 mm 0.00 in0.0 mm 0.00 in0.0 mm
03:45 PM 68.9°F20.5°C 53.5°F11.9°C 58% 1.6 mph WNW2.6 kmh WNW 5.4 mph8.7 kmh 30.13 in1020.3 mb 0.00 in0.0 mm 0.00 in0.0 mm 0.00 in0.0 mm
03:40 PM 68.9°F20.5°C 53.5°F11.9°C 58% 3.1 mph WNW5.0 kmh WNW 6.0 mph9.7 kmh 30.12 in1020.0 mb 0.00 in0.0 mm 0.00 in0.0 mm 0.00 in0.0 mm
03:35 PM 69.1°F20.6°C 53.7°F12.1°C 58% 1.6 mph NW2.6 kmh NW 6.0 mph9.7 kmh 30.13 in1020.3 mb 0.00 in0.0 mm 0.00 in0.0 mm 0.00 in0.0 mm
03:30 PM 69.3°F20.7°C 53.9°F12.2°C 58% 2.2 mph NNW3.5 kmh NNW 4.5 mph7.2 kmh 30.12 in1020.0 mb 0.00 in0.0 mm 0.00 in0.0 mm 0.00 in0.0 mm
03:25 PM 69.6°F20.9°C 53.7°F12.1°C 57% 2.2 mph NW3.5 kmh NW 4.5 mph7.2 kmh 30.12 in1020.0 mb 0.00 in0.0 mm 0.00 in0.0 mm 0.00 in0.0 mm
03:20 PM 69.8°F21.0°C 53.9°F12.2°C 57% 1.6 mph NNW2.6 kmh NNW 5.4 mph8.7 kmh 30.12 in1020.0 mb 0.00 in0.0 mm 0.00 in0.0 mm 0.00 in0.0 mm
03:15 PM 70.3°F21.3°C 53.9°F12.2°C 56% 3.1 mph NNW5.0 kmh NNW 5.4 mph8.7 kmh 30.13 in1020.3 mb 0.00 in0.0 mm 0.00 in0.0 mm 0.00 in0.0 mm
03:10 PM 71.1°F21.7°C 54.1°F12.3°C 55% 0.7 mph N1.1 kmh N 6.0 mph9.7 kmh 30.12 in1020.0 mb 0.00 in0.0 mm 0.00 in0.0 mm 0.00 in0.0 mm
03:05 PM 72.0°F22.2°C 54.4°F12.4°C 54% 1.6 mph N2.6 kmh N 6.9 mph11.1 kmh 30.12 in1020.0 mb 0.00 in0.0 mm 0.00 in0.0 mm 0.00 in0.0 mm
03:00 PM 72.5°F22.5°C 54.9°F12.7°C 54% 4.5 mph N7.2 kmh N 7.6 mph12.2 kmh 30.12 in1020.0 mb 0.00 in0.0 mm 0.00 in0.0 mm 0.00 in0.0 mm
02:55 PM 72.3°F22.4°C 54.8°F12.7°C 54% 3.1 mph N5.0 kmh N 7.6 mph12.2 kmh 30.12 in1020.0 mb 0.00 in0.0 mm 0.00 in0.0 mm 0.00 in0.0 mm
02:50 PM 72.0°F22.2°C 54.4°F12.4°C 54% 3.8 mph NNE6.1 kmh NNE 6.9 mph11.1 kmh 30.12 in1020.0 mb 0.00 in0.0 mm 0.00 in0.0 mm 0.00 in0.0 mm
02:45 PM 71.8°F22.1°C 54.3°F12.4°C 54% 2.2 mph NNE3.5 kmh NNE 6.9 mph11.1 kmh 30.12 in1020.0 mb 0.00 in0.0 mm 0.00 in0.0 mm 0.00 in0.0 mm
02:40 PM 72.1°F22.3°C 54.6°F12.6°C 54% 3.8 mph NNE6.1 kmh NNE 6.9 mph11.1 kmh 30.11 in1019.6 mb 0.00 in0.0 mm 0.00 in0.0 mm 0.00 in0.0 mm
02:35 PM 72.0°F22.2°C 54.4°F12.4°C 54% 3.8 mph ENE6.1 kmh ENE 6.9 mph11.1 kmh 30.11 in1019.6 mb 0.00 in0.0 mm 0.00 in0.0 mm 0.00 in0.0 mm
02:30 PM 72.1°F22.3°C 54.6°F12.6°C 54% 0.7 mph ESE1.1 kmh ESE 6.9 mph11.1 kmh 30.10 in1019.3 mb 0.00 in0.0 mm 0.00 in0.0 mm 0.00 in0.0 mm
02:25 PM 72.5°F22.5°C 54.4°F12.4°C 53% 3.1 mph E5.0 kmh E 7.6 mph12.2 kmh 30.10 in1019.3 mb 0.00 in0.0 mm 0.00 in0.0 mm 0.00 in0.0 mm
02:20 PM 72.7°F22.6°C 54.6°F12.6°C 53% 3.8 mph E6.1 kmh E 9.8 mph15.8 kmh 30.10 in1019.3 mb 0.00 in0.0 mm 0.00 in0.0 mm 0.00 in0.0 mm
02:15 PM 72.9°F22.7°C 54.8°F12.7°C 53% 3.8 mph E6.1 kmh E 9.8 mph15.8 kmh 30.10 in1019.3 mb 0.00 in0.0 mm 0.00 in0.0 mm 0.00 in0.0 mm
02:10 PM 72.7°F22.6°C 54.6°F12.6°C 53% 3.8 mph E6.1 kmh E 7.6 mph12.2 kmh 30.10 in1019.3 mb 0.00 in0.0 mm 0.00 in0.0 mm 0.00 in0.0 mm
02:05 PM 72.7°F22.6°C 54.6°F12.6°C 53% 6.0 mph E9.7 kmh E 9.2 mph14.8 kmh 30.10 in1019.3 mb 0.00 in0.0 mm 0.00 in0.0 mm 0.00 in0.0 mm
02:00 PM 72.5°F22.5°C 54.4°F12.4°C 53% 5.4 mph E8.7 kmh E 9.2 mph14.8 kmh 30.10 in1019.3 mb 0.00 in0.0 mm 0.00 in0.0 mm 0.00 in0.0 mm
01:55 PM 72.0°F22.2°C 54.4°F12.4°C 54% 6.0 mph E9.7 kmh E 9.2 mph14.8 kmh 30.11 in1019.6 mb 0.00 in0.0 mm 0.00 in0.0 mm 0.00 in0.0 mm
01:50 PM 71.6°F22.0°C 54.1°F12.3°C 54% 3.1 mph E5.0 kmh E 8.3 mph13.4 kmh 30.10 in1019.3 mb 0.00 in0.0 mm 0.00 in0.0 mm 0.00 in0.0 mm
01:45 PM 71.2°F21.8°C 53.3°F11.8°C 53% 4.5 mph E7.2 kmh E 8.3 mph13.4 kmh 30.11 in1019.6 mb 0.00 in0.0 mm 0.00 in0.0 mm 0.00 in0.0 mm
01:40 PM 70.7°F21.5°C 53.3°F11.8°C 54% 4.5 mph E7.2 kmh E 7.6 mph12.2 kmh 30.11 in1019.6 mb 0.00 in0.0 mm 0.00 in0.0 mm 0.00 in0.0 mm
01:35 PM 70.0°F21.1°C 52.6°F11.4°C 54% 3.1 mph E5.0 kmh E 7.6 mph12.2 kmh 30.11 in1019.6 mb 0.00 in0.0 mm 0.00 in0.0 mm 0.00 in0.0 mm
01:30 PM 69.4°F20.8°C 52.1°F11.2°C 54% 5.4 mph E8.7 kmh E 7.6 mph12.2 kmh 30.12 in1020.0 mb 0.00 in0.0 mm 0.00 in0.0 mm 0.00 in0.0 mm
01:25 PM 69.3°F20.7°C 52.4°F11.3°C 55% 3.8 mph ENE6.1 kmh ENE 6.0 mph9.7 kmh 30.12 in1020.0 mb 0.00 in0.0 mm 0.00 in0.0 mm 0.00 in0.0 mm
01:20 PM 68.4°F20.2°C 51.6°F10.9°C 55% 3.8 mph ENE6.1 kmh ENE 7.6 mph12.2 kmh 30.12 in1020.0 mb 0.00 in0.0 mm 0.00 in0.0 mm 0.00 in0.0 mm
01:15 PM 68.4°F20.2°C 51.6°F10.9°C 55% 4.5 mph ENE7.2 kmh ENE 7.6 mph12.2 kmh 30.13 in1020.3 mb 0.00 in0.0 mm 0.00 in0.0 mm 0.00 in0.0 mm
01:10 PM 68.2°F20.1°C 51.4°F10.8°C 55% 3.8 mph NE6.1 kmh NE 6.0 mph9.7 kmh 30.13 in1020.3 mb 0.00 in0.0 mm 0.00 in0.0 mm 0.00 in0.0 mm
01:05 PM 67.6°F19.8°C 50.9°F10.5°C 55% 3.8 mph NE6.1 kmh NE 9.2 mph14.8 kmh 30.13 in1020.3 mb 0.00 in0.0 mm 0.00 in0.0 mm 0.00 in0.0 mm
01:00 PM 67.3°F19.6°C 50.6°F10.3°C 55% 3.8 mph NE6.1 kmh NE 9.2 mph14.8 kmh 30.14 in1020.7 mb 0.00 in0.0 mm 0.00 in0.0 mm 0.00 in0.0 mm
12:55 PM 68.2°F20.1°C 50.9°F10.5°C 54% 6.9 mph NE11.1 kmh NE 9.2 mph14.8 kmh 30.14 in1020.7 mb 0.00 in0.0 mm 0.00 in0.0 mm 0.00 in0.0 mm
12:50 PM 68.5°F20.3°C 51.3°F10.7°C 54% 6.0 mph NE9.7 kmh NE 9.8 mph15.8 kmh 30.15 in1021.0 mb 0.00 in0.0 mm 0.00 in0.0 mm 0.00 in0.0 mm
12:45 PM 69.4°F20.8°C 52.1°F11.2°C 54% 6.0 mph NE9.7 kmh NE 9.8 mph15.8 kmh 30.16 in1021.3 mb 0.00 in0.0 mm 0.00 in0.0 mm 0.00 in0.0 mm
12:40 PM 70.0°F21.1°C 52.1°F11.2°C 53% 5.4 mph NE8.7 kmh NE 9.8 mph15.8 kmh 30.16 in1021.3 mb 0.00 in0.0 mm 0.00 in0.0 mm 0.00 in0.0 mm
12:35 PM 70.3°F21.3°C 52.9°F11.6°C 54% 5.4 mph NE8.7 kmh NE 9.8 mph15.8 kmh 30.17 in1021.7 mb 0.00 in0.0 mm 0.00 in0.0 mm 0.00 in0.0 mm
12:30 PM 70.7°F21.5°C 52.8°F11.6°C 53% 5.4 mph NE8.7 kmh NE 9.8 mph15.8 kmh 30.18 in1022.0 mb 0.00 in0.0 mm 0.00 in0.0 mm 0.00 in0.0 mm
12:25 PM 71.2°F21.8°C 53.3°F11.8°C 53% 5.4 mph N8.7 kmh N 9.8 mph15.8 kmh 30.18 in1022.0 mb 0.00 in0.0 mm 0.00 in0.0 mm 0.00 in0.0 mm
12:20 PM 71.8°F22.1°C 53.8°F12.1°C 53% 4.5 mph N7.2 kmh N 7.6 mph12.2 kmh 30.19 in1022.4 mb 0.00 in0.0 mm 0.00 in0.0 mm 0.00 in0.0 mm
12:15 PM 72.0°F22.2°C 53.9°F12.2°C 53% 2.2 mph N3.5 kmh N 7.6 mph12.2 kmh 30.19 in1022.4 mb 0.00 in0.0 mm 0.00 in0.0 mm 0.00 in0.0 mm
12:10 PM 72.0°F22.2°C 54.4°F12.4°C 54% 4.5 mph NE7.2 kmh NE 7.6 mph12.2 kmh 30.20 in1022.7 mb 0.00 in0.0 mm 0.00 in0.0 mm 0.00 in0.0 mm
12:05 PM 71.6°F22.0°C 54.1°F12.3°C 54% 3.1 mph NNE5.0 kmh NNE 7.6 mph12.2 kmh 30.20 in1022.7 mb 0.00 in0.0 mm 0.00 in0.0 mm 0.00 in0.0 mm
12:00 PM 71.1°F21.7°C 54.1°F12.3°C 55% 5.4 mph N8.7 kmh N 8.3 mph13.4 kmh 30.19 in1022.4 mb 0.00 in0.0 mm 0.00 in0.0 mm 0.00 in0.0 mm
11:55 AM 70.3°F21.3°C 53.9°F12.2°C 56% 2.2 mph NNE3.5 kmh NNE 8.3 mph13.4 kmh 30.20 in1022.7 mb 0.00 in0.0 mm 0.00 in0.0 mm 0.00 in0.0 mm
11:50 AM 70.0°F21.1°C 53.6°F12.0°C 56% 3.1 mph NE5.0 kmh NE 8.3 mph13.4 kmh 30.20 in1022.7 mb 0.00 in0.0 mm 0.00 in0.0 mm 0.00 in0.0 mm
11:45 AM 69.8°F21.0°C 53.9°F12.2°C 57% 3.8 mph NE6.1 kmh NE 8.3 mph13.4 kmh 30.20 in1022.7 mb 0.00 in0.0 mm 0.00 in0.0 mm 0.00 in0.0 mm
11:40 AM 69.3°F20.7°C 53.4°F11.9°C 57% 2.2 mph E3.5 kmh E 8.3 mph13.4 kmh 30.21 in1023.0 mb 0.00 in0.0 mm 0.00 in0.0 mm 0.00 in0.0 mm
11:35 AM 69.3°F20.7°C 53.4°F11.9°C 57% 5.4 mph NE8.7 kmh NE 8.3 mph13.4 kmh 30.21 in1023.0 mb 0.00 in0.0 mm 0.00 in0.0 mm 0.00 in0.0 mm
11:30 AM 68.9°F20.5°C 53.1°F11.7°C 57% 4.5 mph NE7.2 kmh NE 9.8 mph15.8 kmh 30.21 in1023.0 mb 0.00 in0.0 mm 0.00 in0.0 mm 0.00 in0.0 mm
11:25 AM 68.7°F20.4°C 52.9°F11.6°C 57% 5.4 mph NE8.7 kmh NE 9.8 mph15.8 kmh 30.21 in1023.0 mb 0.00 in0.0 mm 0.00 in0.0 mm 0.00 in0.0 mm
11:20 AM 68.9°F20.5°C 53.5°F11.9°C 58% 6.0 mph NE9.7 kmh NE 9.2 mph14.8 kmh 30.21 in1023.0 mb 0.00 in0.0 mm 0.00 in0.0 mm 0.00 in0.0 mm
11:15 AM 68.9°F20.5°C 53.5°F11.9°C 58% 5.4 mph NNE8.7 kmh NNE 9.2 mph14.8 kmh 30.22 in1023.4 mb 0.00 in0.0 mm 0.00 in0.0 mm 0.00 in0.0 mm
11:10 AM 68.2°F20.1°C 53.3°F11.8°C 59% 6.0 mph NE9.7 kmh NE 8.3 mph13.4 kmh 30.22 in1023.4 mb 0.00 in0.0 mm 0.00 in0.0 mm 0.00 in0.0 mm
11:05 AM 67.6°F19.8°C 53.3°F11.8°C 60% 3.1 mph NE5.0 kmh NE 8.3 mph13.4 kmh 30.23 in1023.7 mb 0.00 in0.0 mm 0.00 in0.0 mm 0.00 in0.0 mm
11:00 AM 66.9°F19.4°C 53.1°F11.7°C 61% 3.1 mph NE5.0 kmh NE 9.2 mph14.8 kmh 30.23 in1023.7 mb 0.00 in0.0 mm 0.00 in0.0 mm 0.00 in0.0 mm
10:55 AM 65.8°F18.8°C 52.0°F11.1°C 61% 5.4 mph NE8.7 kmh NE 9.2 mph14.8 kmh 30.23 in1023.7 mb 0.00 in0.0 mm 0.00 in0.0 mm 0.00 in0.0 mm
10:50 AM 65.5°F18.6°C 52.1°F11.2°C 62% 5.4 mph NNE8.7 kmh NNE 9.2 mph14.8 kmh 30.23 in1023.7 mb 0.00 in0.0 mm 0.00 in0.0 mm 0.00 in0.0 mm
10:45 AM 64.9°F18.3°C 51.6°F10.9°C 62% 6.9 mph NE11.1 kmh NE 9.2 mph14.8 kmh 30.23 in1023.7 mb 0.00 in0.0 mm 0.00 in0.0 mm 0.00 in0.0 mm
10:40 AM 64.4°F18.0°C 51.5°F10.8°C 63% 5.4 mph NNE8.7 kmh NNE 10.7 mph17.2 kmh 30.23 in1023.7 mb 0.00 in0.0 mm 0.00 in0.0 mm 0.00 in0.0 mm
10:35 AM 64.0°F17.8°C 51.2°F10.7°C 63% 6.0 mph N9.7 kmh N 10.7 mph17.2 kmh 30.23 in1023.7 mb 0.00 in0.0 mm 0.00 in0.0 mm 0.00 in0.0 mm
10:30 AM 63.7°F17.6°C 51.3°F10.7°C 64% 7.6 mph NNE12.2 kmh NNE 10.7 mph17.2 kmh 30.24 in1024.0 mb 0.00 in0.0 mm 0.00 in0.0 mm 0.00 in0.0 mm
10:25 AM 63.1°F17.3°C 51.2°F10.7°C 65% 6.9 mph NNE11.1 kmh NNE 11.4 mph18.3 kmh 30.24 in1024.0 mb 0.00 in0.0 mm 0.00 in0.0 mm 0.00 in0.0 mm
10:20 AM 62.6°F17.0°C 51.1°F10.6°C 66% 6.0 mph NNE9.7 kmh NNE 11.4 mph18.3 kmh 30.24 in1024.0 mb 0.00 in0.0 mm 0.00 in0.0 mm 0.00 in0.0 mm
10:15 AM 62.2°F16.8°C 50.8°F10.4°C 66% 6.0 mph NE9.7 kmh NE 9.8 mph15.8 kmh 30.23 in1023.7 mb 0.00 in0.0 mm 0.00 in0.0 mm 0.00 in0.0 mm
10:10 AM 61.7°F16.5°C 50.6°F10.3°C 67% 6.0 mph NE9.7 kmh NE 11.4 mph18.3 kmh 30.23 in1023.7 mb 0.00 in0.0 mm 0.00 in0.0 mm 0.00 in0.0 mm
10:05 AM 61.5°F16.4°C 50.9°F10.5°C 68% 6.9 mph NE11.1 kmh NE 11.4 mph18.3 kmh 30.23 in1023.7 mb 0.00 in0.0 mm 0.00 in0.0 mm 0.00 in0.0 mm
10:00 AM 60.8°F16.0°C 50.6°F10.3°C 69% 6.0 mph NE9.7 kmh NE 10.7 mph17.2 kmh 30.23 in1023.7 mb 0.00 in0.0 mm 0.00 in0.0 mm 0.00 in0.0 mm
09:55 AM 59.7°F15.4°C 49.9°F9.9°C 70% 7.6 mph NE12.2 kmh NE 10.7 mph17.2 kmh 30.23 in1023.7 mb 0.00 in0.0 mm 0.00 in0.0 mm 0.00 in0.0 mm
09:50 AM 59.7°F15.4°C 49.9°F9.9°C 70% 7.6 mph NE12.2 kmh NE 10.7 mph17.2 kmh 30.23 in1023.7 mb 0.00 in0.0 mm 0.00 in0.0 mm 0.00 in0.0 mm
09:45 AM 59.5°F15.3°C 50.1°F10.1°C 71% 6.0 mph NNE9.7 kmh NNE 11.4 mph18.3 kmh 30.24 in1024.0 mb 0.00 in0.0 mm 0.00 in0.0 mm 0.00 in0.0 mm
09:40 AM 58.8°F14.9°C 49.8°F9.9°C 72% 5.4 mph NNE8.7 kmh NNE 11.4 mph18.3 kmh 30.23 in1023.7 mb 0.00 in0.0 mm 0.00 in0.0 mm 0.00 in0.0 mm
09:35 AM 58.3°F14.6°C 49.7°F9.8°C 73% 6.9 mph NE11.1 kmh NE 10.7 mph17.2 kmh 30.24 in1024.0 mb 0.00 in0.0 mm 0.00 in0.0 mm 0.00 in0.0 mm
09:30 AM 57.7°F14.3°C 49.2°F9.6°C 73% 3.8 mph NE6.1 kmh NE 10.7 mph17.2 kmh 30.22 in1023.4 mb 0.00 in0.0 mm 0.00 in0.0 mm 0.00 in0.0 mm
09:25 AM 57.2°F14.0°C 49.4°F9.7°C 75% 7.6 mph NNE12.2 kmh NNE 10.7 mph17.2 kmh 30.24 in1024.0 mb 0.00 in0.0 mm 0.00 in0.0 mm 0.00 in0.0 mm
09:20 AM 56.1°F13.4°C 48.7°F9.3°C 76% 6.9 mph NNE11.1 kmh NNE 9.8 mph15.8 kmh 30.24 in1024.0 mb 0.00 in0.0 mm 0.00 in0.0 mm 0.00 in0.0 mm
09:15 AM 55.0°F12.8°C 48.3°F9.1°C 78% 6.9 mph NNE11.1 kmh NNE 9.2 mph14.8 kmh 30.24 in1024.0 mb 0.00 in0.0 mm 0.00 in0.0 mm 0.00 in0.0 mm
09:10 AM 53.6°F12.0°C 47.3°F8.5°C 79% 6.0 mph NNE9.7 kmh NNE 9.2 mph14.8 kmh 30.24 in1024.0 mb 0.00 in0.0 mm 0.00 in0.0 mm 0.00 in0.0 mm
09:05 AM 52.5°F11.4°C 46.2°F7.9°C 79% 3.8 mph NNE6.1 kmh NNE 10.7 mph17.2 kmh 30.23 in1023.7 mb 0.00 in0.0 mm 0.00 in0.0 mm 0.00 in0.0 mm
09:00 AM 52.2°F11.2°C 45.5°F7.5°C 78% 7.6 mph NNE12.2 kmh NNE 10.7 mph17.2 kmh 30.23 in1023.7 mb 0.00 in0.0 mm 0.00 in0.0 mm 0.00 in0.0 mm
08:55 AM 52.7°F11.5°C 46.4°F8.0°C 79% 6.0 mph NNE9.7 kmh NNE 10.7 mph17.2 kmh 30.24 in1024.0 mb 0.00 in0.0 mm 0.00 in0.0 mm 0.00 in0.0 mm
08:50 AM 52.7°F11.5°C 46.7°F8.2°C 80% 5.4 mph N8.7 kmh N 10.7 mph17.2 kmh 30.25 in1024.4 mb 0.00 in0.0 mm 0.00 in0.0 mm 0.00 in0.0 mm
08:45 AM 52.2°F11.2°C 46.2°F7.9°C 80% 7.6 mph NNE12.2 kmh NNE 10.7 mph17.2 kmh 30.25 in1024.4 mb 0.00 in0.0 mm 0.00 in0.0 mm 0.00 in0.0 mm
08:40 AM 51.8°F11.0°C 46.2°F7.9°C 81% 5.4 mph NE8.7 kmh NE 9.2 mph14.8 kmh 30.23 in1023.7 mb 0.00 in0.0 mm 0.00 in0.0 mm 0.00 in0.0 mm
08:35 AM 51.6°F10.9°C 46.3°F7.9°C 82% 6.0 mph NE9.7 kmh NE 9.2 mph14.8 kmh 30.23 in1023.7 mb 0.00 in0.0 mm 0.00 in0.0 mm 0.00 in0.0 mm
08:30 AM 50.9°F10.5°C 45.6°F7.6°C 82% 6.9 mph NE11.1 kmh NE 9.2 mph14.8 kmh 30.23 in1023.7 mb 0.00 in0.0 mm 0.00 in0.0 mm 0.00 in0.0 mm
08:25 AM 50.5°F10.3°C 45.6°F7.6°C 83% 7.6 mph NE12.2 kmh NE 9.8 mph15.8 kmh 30.23 in1023.7 mb 0.00 in0.0 mm 0.00 in0.0 mm 0.00 in0.0 mm
08:20 AM 50.2°F10.1°C 45.2°F7.3°C 83% 6.0 mph NE9.7 kmh NE 9.8 mph15.8 kmh 30.22 in1023.4 mb 0.00 in0.0 mm 0.00 in0.0 mm 0.00 in0.0 mm
08:15 AM 49.8°F9.9°C 45.2°F7.3°C 84% 4.5 mph NE7.2 kmh NE 9.8 mph15.8 kmh 30.22 in1023.4 mb 0.00 in0.0 mm 0.00 in0.0 mm 0.00 in0.0 mm
08:10 AM 48.9°F9.4°C 44.6°F7.0°C 85% 5.4 mph NE8.7 kmh NE 10.7 mph17.2 kmh 30.22 in1023.4 mb 0.00 in0.0 mm 0.00 in0.0 mm 0.00 in0.0 mm
08:05 AM 47.8°F8.8°C 43.9°F6.6°C 86% 3.8 mph NE6.1 kmh NE 10.7 mph17.2 kmh 30.22 in1023.4 mb 0.00 in0.0 mm 0.00 in0.0 mm 0.00 in0.0 mm
08:00 AM 46.9°F8.3°C 43.0°F6.1°C 86% 5.4 mph NE8.7 kmh NE 9.2 mph14.8 kmh 30.22 in1023.4 mb 0.00 in0.0 mm 0.00 in0.0 mm 0.00 in0.0 mm
07:55 AM 46.4°F8.0°C 42.4°F5.8°C 86% 4.5 mph NE7.2 kmh NE 10.7 mph17.2 kmh 30.21 in1023.0 mb 0.00 in0.0 mm 0.00 in0.0 mm 0.00 in0.0 mm
07:50 AM 46.0°F7.8°C 42.1°F5.6°C 86% 5.4 mph NNE8.7 kmh NNE 10.7 mph17.2 kmh 30.22 in1023.4 mb 0.00 in0.0 mm 0.00 in0.0 mm 0.00 in0.0 mm
07:45 AM 45.7°F7.6°C 41.7°F5.4°C 86% 3.8 mph NNE6.1 kmh NNE 10.7 mph17.2 kmh 30.23 in1023.7 mb 0.00 in0.0 mm 0.00 in0.0 mm 0.00 in0.0 mm
07:40 AM 45.0°F7.2°C 41.0°F5.0°C 86% 3.8 mph NE6.1 kmh NE 7.6 mph12.2 kmh 30.21 in1023.0 mb 0.00 in0.0 mm 0.00 in0.0 mm 0.00 in0.0 mm
07:35 AM 44.6°F7.0°C 41.0°F5.0°C 87% 4.5 mph NE7.2 kmh NE 7.6 mph12.2 kmh 30.21 in1023.0 mb 0.00 in0.0 mm 0.00 in0.0 mm 0.00 in0.0 mm
07:30 AM 44.2°F6.8°C 40.3°F4.6°C 86% 3.8 mph NE6.1 kmh NE 7.6 mph12.2 kmh 30.20 in1022.7 mb 0.00 in0.0 mm 0.00 in0.0 mm 0.00 in0.0 mm
07:25 AM 44.2°F6.8°C 40.3°F4.6°C 86% 4.5 mph NE7.2 kmh NE 9.2 mph14.8 kmh 30.20 in1022.7 mb 0.00 in0.0 mm 0.00 in0.0 mm 0.00 in0.0 mm
07:20 AM 44.2°F6.8°C 40.3°F4.6°C 86% 4.5 mph NE7.2 kmh NE 11.4 mph18.3 kmh 30.20 in1022.7 mb 0.00 in0.0 mm 0.00 in0.0 mm 0.00 in0.0 mm
07:15 AM 44.1°F6.7°C 40.1°F4.5°C 86% 7.6 mph NE12.2 kmh NE 12.1 mph19.5 kmh 30.20 in1022.7 mb 0.00 in0.0 mm 0.00 in0.0 mm 0.00 in0.0 mm
07:10 AM 44.2°F6.8°C 40.3°F4.6°C 86% 5.4 mph NE8.7 kmh NE 12.1 mph19.5 kmh 30.20 in1022.7 mb 0.00 in0.0 mm 0.00 in0.0 mm 0.00 in0.0 mm
07:05 AM 44.1°F6.7°C 40.1°F4.5°C 86% 6.9 mph NE11.1 kmh NE 10.7 mph17.2 kmh 30.20 in1022.7 mb 0.00 in0.0 mm 0.00 in0.0 mm 0.00 in0.0 mm
07:00 AM 44.2°F6.8°C 40.3°F4.6°C 86% 4.5 mph NE7.2 kmh NE 12.1 mph19.5 kmh 30.20 in1022.7 mb 0.00 in0.0 mm 0.00 in0.0 mm 0.00 in0.0 mm
06:55 AM 44.4°F6.9°C 40.5°F4.7°C 86% 4.5 mph ENE7.2 kmh ENE 12.1 mph19.5 kmh 30.20 in1022.7 mb 0.00 in0.0 mm 0.00 in0.0 mm 0.00 in0.0 mm
06:50 AM 44.2°F6.8°C 40.3°F4.6°C 86% 6.9 mph NE11.1 kmh NE 11.4 mph18.3 kmh 30.19 in1022.4 mb 0.00 in0.0 mm 0.00 in0.0 mm 0.00 in0.0 mm
06:45 AM 44.4°F6.9°C 40.5°F4.7°C 86% 6.0 mph NE9.7 kmh NE 13.6 mph21.9 kmh 30.19 in1022.4 mb 0.00 in0.0 mm 0.00 in0.0 mm 0.00 in0.0 mm
06:40 AM 44.4°F6.9°C 40.5°F4.7°C 86% 7.6 mph NE12.2 kmh NE 13.6 mph21.9 kmh 30.19 in1022.4 mb 0.00 in0.0 mm 0.00 in0.0 mm 0.00 in0.0 mm
06:35 AM 44.4°F6.9°C 40.5°F4.7°C 86% 9.2 mph NE14.8 kmh NE 12.1 mph19.5 kmh 30.19 in1022.4 mb 0.00 in0.0 mm 0.00 in0.0 mm 0.00 in0.0 mm
06:30 AM 44.2°F6.8°C 40.3°F4.6°C 86% 7.6 mph NE12.2 kmh NE 12.1 mph19.5 kmh 30.19 in1022.4 mb 0.00 in0.0 mm 0.00 in0.0 mm 0.00 in0.0 mm
06:25 AM 44.4°F6.9°C 40.5°F4.7°C 86% 5.4 mph NE8.7 kmh NE 13.0 mph20.9 kmh 30.19 in1022.4 mb 0.00 in0.0 mm 0.00 in0.0 mm 0.00 in0.0 mm
06:20 AM 44.2°F6.8°C 40.3°F4.6°C 86% 6.9 mph NE11.1 kmh NE 13.0 mph20.9 kmh 30.19 in1022.4 mb 0.00 in0.0 mm 0.00 in0.0 mm 0.00 in0.0 mm
06:15 AM 44.2°F6.8°C 40.3°F4.6°C 86% 6.9 mph NNE11.1 kmh NNE 12.1 mph19.5 kmh 30.19 in1022.4 mb 0.00 in0.0 mm 0.00 in0.0 mm 0.00 in0.0 mm
06:10 AM 44.2°F6.8°C 40.3°F4.6°C 86% 6.0 mph NNE9.7 kmh NNE 12.1 mph19.5 kmh 30.19 in1022.4 mb 0.00 in0.0 mm 0.00 in0.0 mm 0.00 in0.0 mm
06:05 AM 44.2°F6.8°C 40.3°F4.6°C 86% 5.4 mph NNE8.7 kmh NNE 13.0 mph20.9 kmh 30.19 in1022.4 mb 0.00 in0.0 mm 0.00 in0.0 mm 0.00 in0.0 mm
06:00 AM 44.4°F6.9°C 40.5°F4.7°C 86% 6.9 mph N11.1 kmh N 13.0 mph20.9 kmh 30.19 in1022.4 mb 0.00 in0.0 mm 0.00 in0.0 mm 0.00 in0.0 mm
05:55 AM 44.4°F6.9°C 40.5°F4.7°C 86% 7.6 mph N12.2 kmh N 13.0 mph20.9 kmh 30.20 in1022.7 mb 0.00 in0.0 mm 0.00 in0.0 mm 0.00 in0.0 mm
05:50 AM 44.4°F6.9°C 40.5°F4.7°C 86% 9.2 mph NNE14.8 kmh NNE 13.0 mph20.9 kmh 30.19 in1022.4 mb 0.00 in0.0 mm 0.00 in0.0 mm 0.00 in0.0 mm
05:45 AM 44.4°F6.9°C 40.5°F4.7°C 86% 7.6 mph NNE12.2 kmh NNE 13.6 mph21.9 kmh 30.19 in1022.4 mb 0.00 in0.0 mm 0.00 in0.0 mm 0.00 in0.0 mm
05:40 AM 44.4°F6.9°C 40.5°F4.7°C 86% 9.2 mph NE14.8 kmh NE 13.6 mph21.9 kmh 30.19 in1022.4 mb 0.00 in0.0 mm 0.00 in0.0 mm 0.00 in0.0 mm
05:35 AM 44.4°F6.9°C 40.5°F4.7°C 86% 7.6 mph NNE12.2 kmh NNE 13.0 mph20.9 kmh 30.20 in1022.7 mb 0.00 in0.0 mm 0.00 in0.0 mm 0.00 in0.0 mm
05:30 AM 44.4°F6.9°C 40.5°F4.7°C 86% 9.8 mph N15.8 kmh N 13.0 mph20.9 kmh 30.19 in1022.4 mb 0.00 in0.0 mm 0.00 in0.0 mm 0.00 in0.0 mm
05:25 AM 44.4°F6.9°C 40.5°F4.7°C 86% 6.9 mph N11.1 kmh N 13.6 mph21.9 kmh 30.19 in1022.4 mb 0.00 in0.0 mm 0.00 in0.0 mm 0.00 in0.0 mm
05:20 AM 44.6°F7.0°C 40.7°F4.8°C 86% 6.0 mph N9.7 kmh N 13.6 mph21.9 kmh 30.19 in1022.4 mb 0.00 in0.0 mm 0.00 in0.0 mm 0.00 in0.0 mm
05:15 AM 44.4°F6.9°C 40.5°F4.7°C 86% 6.0 mph NNE9.7 kmh NNE 13.0 mph20.9 kmh 30.19 in1022.4 mb 0.00 in0.0 mm 0.00 in0.0 mm 0.00 in0.0 mm
05:10 AM 44.6°F7.0°C 40.7°F4.8°C 86% 7.6 mph NNE12.2 kmh NNE 13.0 mph20.9 kmh 30.19 in1022.4 mb 0.00 in0.0 mm 0.00 in0.0 mm 0.00 in0.0 mm
05:05 AM 44.6°F7.0°C 40.4°F4.7°C 85% 6.0 mph N9.7 kmh N 12.1 mph19.5 kmh 30.19 in1022.4 mb 0.00 in0.0 mm 0.00 in0.0 mm 0.00 in0.0 mm
05:00 AM 44.6°F7.0°C 40.4°F4.7°C 85% 8.3 mph N13.4 kmh N 13.0 mph20.9 kmh 30.18 in1022.0 mb 0.00 in0.0 mm 0.00 in0.0 mm 0.00 in0.0 mm
04:55 AM 44.4°F6.9°C 40.2°F4.6°C 85% 6.0 mph NNE9.7 kmh NNE 13.0 mph20.9 kmh 30.19 in1022.4 mb 0.00 in0.0 mm 0.00 in0.0 mm 0.00 in0.0 mm
04:50 AM 44.4°F6.9°C 40.2°F4.6°C 85% 7.6 mph NNE12.2 kmh NNE 10.7 mph17.2 kmh 30.19 in1022.4 mb 0.00 in0.0 mm 0.00 in0.0 mm 0.00 in0.0 mm
04:45 AM 44.6°F7.0°C 40.4°F4.7°C 85% 5.4 mph N8.7 kmh N 8.3 mph13.4 kmh 30.19 in1022.4 mb 0.00 in0.0 mm 0.00 in0.0 mm 0.00 in0.0 mm
04:40 AM 44.6°F7.0°C 40.4°F4.7°C 85% 5.4 mph N8.7 kmh N 8.3 mph13.4 kmh 30.18 in1022.0 mb 0.00 in0.0 mm 0.00 in0.0 mm 0.00 in0.0 mm
04:35 AM 44.6°F7.0°C 40.4°F4.7°C 85% 3.8 mph N6.1 kmh N 8.3 mph13.4 kmh 30.19 in1022.4 mb 0.00 in0.0 mm 0.00 in0.0 mm 0.00 in0.0 mm
04:30 AM 44.6°F7.0°C 40.4°F4.7°C 85% 3.8 mph NNE6.1 kmh NNE 8.3 mph13.4 kmh 30.19 in1022.4 mb 0.00 in0.0 mm 0.00 in0.0 mm 0.00 in0.0 mm
04:25 AM 44.6°F7.0°C 40.4°F4.7°C 85% 6.0 mph NNE9.7 kmh NNE 8.3 mph13.4 kmh 30.18 in1022.0 mb 0.00 in0.0 mm 0.00 in0.0 mm 0.00 in0.0 mm
04:20 AM 44.6°F7.0°C 40.4°F4.7°C 85% 4.5 mph N7.2 kmh N 9.2 mph14.8 kmh 30.19 in1022.4 mb 0.00 in0.0 mm 0.00 in0.0 mm 0.00 in0.0 mm
04:15 AM 45.0°F7.2°C 40.7°F4.8°C 85% 4.5 mph N7.2 kmh N 9.2 mph14.8 kmh 30.19 in1022.4 mb 0.00 in0.0 mm 0.00 in0.0 mm 0.00 in0.0 mm
04:10 AM 44.6°F7.0°C 40.4°F4.7°C 85% 6.9 mph NNE11.1 kmh NNE 9.2 mph14.8 kmh 30.19 in1022.4 mb 0.00 in0.0 mm 0.00 in0.0 mm 0.00 in0.0 mm
04:05 AM 44.6°F7.0°C 40.4°F4.7°C 85% 3.8 mph N6.1 kmh N 8.3 mph13.4 kmh 30.19 in1022.4 mb 0.00 in0.0 mm 0.00 in0.0 mm 0.00 in0.0 mm
04:00 AM 44.8°F7.1°C 40.6°F4.8°C 85% 5.4 mph N8.7 kmh N 8.3 mph13.4 kmh 30.19 in1022.4 mb 0.00 in0.0 mm 0.00 in0.0 mm 0.00 in0.0 mm
03:55 AM 44.8°F7.1°C 40.6°F4.8°C 85% 4.5 mph N7.2 kmh N 6.9 mph11.1 kmh 30.19 in1022.4 mb 0.00 in0.0 mm 0.00 in0.0 mm 0.00 in0.0 mm
03:50 AM 44.8°F7.1°C 40.6°F4.8°C 85% 3.8 mph N6.1 kmh N 6.9 mph11.1 kmh 30.18 in1022.0 mb 0.00 in0.0 mm 0.00 in0.0 mm 0.00 in0.0 mm
03:45 AM 45.0°F7.2°C 40.7°F4.8°C 85% 3.8 mph N6.1 kmh N 8.3 mph13.4 kmh 30.18 in1022.0 mb 0.00 in0.0 mm 0.00 in0.0 mm 0.00 in0.0 mm
03:40 AM 45.0°F7.2°C 40.7°F4.8°C 85% 3.8 mph N6.1 kmh N 9.8 mph15.8 kmh 30.18 in1022.0 mb 0.00 in0.0 mm 0.00 in0.0 mm 0.00 in0.0 mm
03:35 AM 45.0°F7.2°C 40.4°F4.7°C 84% 6.0 mph N9.7 kmh N 10.7 mph17.2 kmh 30.18 in1022.0 mb 0.00 in0.0 mm 0.00 in0.0 mm 0.00 in0.0 mm
03:30 AM 45.0°F7.2°C 40.4°F4.7°C 84% 6.0 mph NNE9.7 kmh NNE 10.7 mph17.2 kmh 30.19 in1022.4 mb 0.00 in0.0 mm 0.00 in0.0 mm 0.00 in0.0 mm
03:25 AM 44.8°F7.1°C 40.2°F4.6°C 84% 4.5 mph NNE7.2 kmh NNE 7.6 mph12.2 kmh 30.19 in1022.4 mb 0.00 in0.0 mm 0.00 in0.0 mm 0.00 in0.0 mm
03:20 AM 44.6°F7.0°C 40.1°F4.5°C 84% 5.4 mph NNE8.7 kmh NNE 7.6 mph12.2 kmh 30.19 in1022.4 mb 0.00 in0.0 mm 0.00 in0.0 mm 0.00 in0.0 mm
03:15 AM 44.6°F7.0°C 40.1°F4.5°C 84% 3.1 mph N5.0 kmh N 6.0 mph9.7 kmh 30.20 in1022.7 mb 0.00 in0.0 mm 0.00 in0.0 mm 0.00 in0.0 mm
03:10 AM 44.6°F7.0°C 40.1°F4.5°C 84% 3.8 mph N6.1 kmh N 6.9 mph11.1 kmh 30.20 in1022.7 mb 0.00 in0.0 mm 0.00 in0.0 mm 0.00 in0.0 mm
03:05 AM 44.4°F6.9°C 39.6°F4.2°C 83% 3.1 mph N5.0 kmh N 7.6 mph12.2 kmh 30.19 in1022.4 mb 0.00 in0.0 mm 0.00 in0.0 mm 0.00 in0.0 mm
03:00 AM 44.2°F6.8°C 39.4°F4.1°C 83% 4.5 mph N7.2 kmh N 7.6 mph12.2 kmh 30.19 in1022.4 mb 0.00 in0.0 mm 0.00 in0.0 mm 0.00 in0.0 mm
02:55 AM 44.1°F6.7°C 39.2°F4.0°C 83% 5.4 mph N8.7 kmh N 7.6 mph12.2 kmh 30.19 in1022.4 mb 0.00 in0.0 mm 0.00 in0.0 mm 0.00 in0.0 mm
02:50 AM 44.1°F6.7°C 39.2°F4.0°C 83% 3.1 mph N5.0 kmh N 4.5 mph7.2 kmh 30.18 in1022.0 mb 0.00 in0.0 mm 0.00 in0.0 mm 0.00 in0.0 mm
02:45 AM 44.1°F6.7°C 38.9°F3.8°C 82% 2.2 mph N3.5 kmh N 3.1 mph5.0 kmh 30.19 in1022.4 mb 0.00 in0.0 mm 0.00 in0.0 mm 0.00 in0.0 mm
02:40 AM 44.2°F6.8°C 39.1°F3.9°C 82% 0.7 mph N1.1 kmh N 2.2 mph3.5 kmh 30.19 in1022.4 mb 0.00 in0.0 mm 0.00 in0.0 mm 0.00 in0.0 mm
02:35 AM 44.6°F7.0°C 39.8°F4.3°C 83% 1.6 mph N2.6 kmh N 3.1 mph5.0 kmh 30.19 in1022.4 mb 0.00 in0.0 mm 0.00 in0.0 mm 0.00 in0.0 mm
02:30 AM 44.6°F7.0°C 39.8°F4.3°C 83% 1.6 mph N2.6 kmh N 4.5 mph7.2 kmh 30.20 in1022.7 mb 0.00 in0.0 mm 0.00 in0.0 mm 0.00 in0.0 mm
02:25 AM 44.8°F7.1°C 39.9°F4.4°C 83% 1.6 mph N2.6 kmh N 4.5 mph7.2 kmh 30.19 in1022.4 mb 0.00 in0.0 mm 0.00 in0.0 mm 0.00 in0.0 mm
02:20 AM 45.0°F7.2°C 40.1°F4.5°C 83% 3.1 mph N5.0 kmh N 6.0 mph9.7 kmh 30.19 in1022.4 mb 0.00 in0.0 mm 0.00 in0.0 mm 0.00 in0.0 mm
02:15 AM 45.1°F7.3°C 40.3°F4.6°C 83% 2.2 mph N3.5 kmh N 6.0 mph9.7 kmh 30.19 in1022.4 mb 0.00 in0.0 mm 0.00 in0.0 mm 0.00 in0.0 mm
02:10 AM 45.0°F7.2°C 40.1°F4.5°C 83% 4.5 mph N7.2 kmh N 6.0 mph9.7 kmh 30.19 in1022.4 mb 0.00 in0.0 mm 0.00 in0.0 mm 0.00 in0.0 mm
02:05 AM 45.0°F7.2°C 40.1°F4.5°C 83% 4.5 mph N7.2 kmh N 6.0 mph9.7 kmh 30.19 in1022.4 mb 0.00 in0.0 mm 0.00 in0.0 mm 0.00 in0.0 mm
02:00 AM 45.1°F7.3°C 40.0°F4.4°C 82% 3.8 mph N6.1 kmh N 6.0 mph9.7 kmh 30.19 in1022.4 mb 0.00 in0.0 mm 0.00 in0.0 mm 0.00 in0.0 mm
01:55 AM 45.1°F7.3°C 40.3°F4.6°C 83% 2.2 mph N3.5 kmh N 5.4 mph8.7 kmh 30.20 in1022.7 mb 0.00 in0.0 mm 0.00 in0.0 mm 0.00 in0.0 mm
01:50 AM 45.5°F7.5°C 40.3°F4.6°C 82% 3.8 mph N6.1 kmh N 5.4 mph8.7 kmh 30.19 in1022.4 mb 0.00 in0.0 mm 0.00 in0.0 mm 0.00 in0.0 mm
01:45 AM 45.7°F7.6°C 40.5°F4.7°C 82% 2.2 mph N3.5 kmh N 6.0 mph9.7 kmh 30.20 in1022.7 mb 0.00 in0.0 mm 0.00 in0.0 mm 0.00 in0.0 mm
01:40 AM 45.9°F7.7°C 41.0°F5.0°C 83% 3.1 mph N5.0 kmh N 6.9 mph11.1 kmh 30.20 in1022.7 mb 0.00 in0.0 mm 0.00 in0.0 mm 0.00 in0.0 mm
01:35 AM 45.9°F7.7°C 41.0°F5.0°C 83% 4.5 mph N7.2 kmh N 6.9 mph11.1 kmh 30.19 in1022.4 mb 0.00 in0.0 mm 0.00 in0.0 mm 0.00 in0.0 mm
01:30 AM 45.9°F7.7°C 41.0°F5.0°C 83% 3.8 mph N6.1 kmh N 7.6 mph12.2 kmh 30.19 in1022.4 mb 0.00 in0.0 mm 0.00 in0.0 mm 0.00 in0.0 mm
01:25 AM 45.9°F7.7°C 40.7°F4.8°C 82% 3.8 mph N6.1 kmh N 7.6 mph12.2 kmh 30.19 in1022.4 mb 0.00 in0.0 mm 0.00 in0.0 mm 0.00 in0.0 mm
01:20 AM 46.0°F7.8°C 40.9°F4.9°C 82% 4.5 mph N7.2 kmh N 7.6 mph12.2 kmh 30.19 in1022.4 mb 0.00 in0.0 mm 0.00 in0.0 mm 0.00 in0.0 mm
01:15 AM 46.2°F7.9°C 41.0°F5.0°C 82% 4.5 mph N7.2 kmh N 7.6 mph12.2 kmh 30.19 in1022.4 mb 0.00 in0.0 mm 0.00 in0.0 mm 0.00 in0.0 mm
01:10 AM 46.4°F8.0°C 41.2°F5.1°C 82% 3.8 mph N6.1 kmh N 6.9 mph11.1 kmh 30.19 in1022.4 mb 0.00 in0.0 mm 0.00 in0.0 mm 0.00 in0.0 mm
01:05 AM 46.4°F8.0°C 41.2°F5.1°C 82% 4.5 mph N7.2 kmh N 8.3 mph13.4 kmh 30.19 in1022.4 mb 0.00 in0.0 mm 0.00 in0.0 mm 0.00 in0.0 mm
01:00 AM 46.6°F8.1°C 41.4°F5.2°C 82% 4.5 mph N7.2 kmh N 8.3 mph13.4 kmh 30.19 in1022.4 mb 0.00 in0.0 mm 0.00 in0.0 mm 0.00 in0.0 mm
12:55 AM 46.6°F8.1°C 41.4°F5.2°C 82% 4.5 mph N7.2 kmh N 7.6 mph12.2 kmh 30.18 in1022.0 mb 0.00 in0.0 mm 0.00 in0.0 mm 0.00 in0.0 mm
12:50 AM 46.8°F8.2°C 41.6°F5.3°C 82% 3.8 mph N6.1 kmh N 8.3 mph13.4 kmh 30.19 in1022.4 mb 0.00 in0.0 mm 0.00 in0.0 mm 0.00 in0.0 mm
12:45 AM 46.9°F8.3°C 41.7°F5.4°C 82% 3.8 mph N6.1 kmh N 9.8 mph15.8 kmh 30.19 in1022.4 mb 0.00 in0.0 mm 0.00 in0.0 mm 0.00 in0.0 mm
12:40 AM 46.8°F8.2°C 41.6°F5.3°C 82% 5.4 mph N8.7 kmh N 9.8 mph15.8 kmh 30.19 in1022.4 mb 0.00 in0.0 mm 0.00 in0.0 mm 0.00 in0.0 mm
12:35 AM 46.9°F8.3°C 41.7°F5.4°C 82% 6.9 mph N11.1 kmh N 9.8 mph15.8 kmh 30.19 in1022.4 mb 0.00 in0.0 mm 0.00 in0.0 mm 0.00 in0.0 mm
12:30 AM 46.9°F8.3°C 41.7°F5.4°C 82% 5.4 mph N8.7 kmh N 9.8 mph15.8 kmh 30.19 in1022.4 mb 0.00 in0.0 mm 0.00 in0.0 mm 0.00 in0.0 mm
12:25 AM 46.9°F8.3°C 41.7°F5.4°C 82% 6.0 mph N9.7 kmh N 8.3 mph13.4 kmh 30.19 in1022.4 mb 0.00 in0.0 mm 0.00 in0.0 mm 0.00 in0.0 mm
12:20 AM 47.1°F8.4°C 41.9°F5.5°C 82% 5.4 mph N8.7 kmh N 9.8 mph15.8 kmh 30.19 in1022.4 mb 0.00 in0.0 mm 0.00 in0.0 mm 0.00 in0.0 mm
12:15 AM 47.1°F8.4°C 41.9°F5.5°C 82% 5.4 mph N8.7 kmh N 9.8 mph15.8 kmh 30.19 in1022.4 mb 0.00 in0.0 mm 0.00 in0.0 mm 0.00 in0.0 mm
12:10 AM 47.1°F8.4°C 41.9°F5.5°C 82% 4.5 mph N7.2 kmh N 12.1 mph19.5 kmh 30.20 in1022.7 mb 0.00 in0.0 mm 0.00 in0.0 mm 0.00 in0.0 mm
12:05 AM 47.1°F8.4°C 41.9°F5.5°C 82% 6.0 mph N9.7 kmh N 12.1 mph19.5 kmh 30.20 in1022.7 mb 0.00 in0.0 mm 0.00 in0.0 mm 0.00 in0.0 mm
12:00 AM 47.3°F8.5°C 42.1°F5.6°C 82% 3.8 mph N6.1 kmh N 10.7 mph17.2 kmh 30.20 in1022.7 mb 0.00 in0.0 mm 0.00 in0.0 mm 0.00 in0.0 mm